Time;durP1;ratioP1;P1;durP2;ratioP2;P2;SDS_P1;SDS_P2;PMS_P1;PMS_P2;Temp;Humidity;BMP_temperature;BMP_pressure;BME280_temperature;BME280_humidity;BME280_pressure;Samples;Min_cycle;Max_cycle;Signal;HPM_P1;HPM_P2
2021/12/05 00:23:17;;;;;;;6.63;2.25;;;1.60;98.00;;;;;;5014939;28;20046;-78
2021/12/05 00:25:47;;;;;;;6.75;2.10;;;1.60;98.00;;;;;;5017504;28;20021;-77
2021/12/05 00:33:37;;;;;;;9.02;2.25;;;1.70;98.00;;;;;;5016128;28;20076;-77
2021/12/05 00:50:15;;;;;;;8.60;2.10;;;1.90;98.00;;;;;;5013658;28;20075;-77
2021/12/05 01:15:54;;;;;;;7.50;2.15;;;1.90;98.00;;;;;;5015820;28;20104;-77
2021/12/05 01:18:20;;;;;;;8.50;2.00;;;1.90;98.00;;;;;;5017012;28;20030;-77
2021/12/05 01:20:53;;;;;;;8.10;2.00;;;1.90;98.00;;;;;;5013658;28;20362;-76
2021/12/05 01:26:03;;;;;;;7.35;2.20;;;2.00;98.00;;;;;;5003601;28;20042;-78
2021/12/05 02:32:45;;;;;;;4.40;1.80;;;2.30;98.00;;;;;;5014880;28;20044;-77
2021/12/05 02:43:09;;;;;;;5.97;1.67;;;2.40;97.00;;;;;;5001481;28;20034;-76
2021/12/05 02:45:38;;;;;;;6.60;1.70;;;2.40;96.50;;;;;;5011159;28;20025;-77
2021/12/05 02:48:05;;;;;;;6.57;1.77;;;2.40;96.30;;;;;;5000351;28;20022;-76
2021/12/05 02:50:32;;;;;;;6.05;1.52;;;2.50;95.90;;;;;;5002253;28;20031;-77
2021/12/05 02:53:06;;;;;;;9.80;1.70;;;2.50;95.90;;;;;;5011955;28;20044;-77
2021/12/05 02:55:42;;;;;;;5.82;1.55;;;2.50;95.60;;;;;;5019431;28;20415;-77
2021/12/05 03:03:27;;;;;;;5.72;1.58;;;2.50;96.40;;;;;;5014995;28;20037;-78
2021/12/05 03:06:00;;;;;;;3.85;1.40;;;2.40;96.60;;;;;;5015158;28;20025;-76
2021/12/05 03:08:26;;;;;;;7.13;1.80;;;2.30;97.30;;;;;;5013878;28;20077;-76
2021/12/05 03:10:58;;;;;;;6.18;1.70;;;2.30;97.10;;;;;;5006398;28;20037;-76
2021/12/05 03:13:24;;;;;;;5.75;1.92;;;2.30;97.10;;;;;;5014560;28;20081;-76
2021/12/05 03:15:50;;;;;;;6.43;1.65;;;2.30;97.00;;;;;;5007105;28;20022;-76
2021/12/05 03:18:16;;;;;;;4.65;1.30;;;2.30;96.40;;;;;;5015748;28;20057;-78
2021/12/05 03:20:45;;;;;;;7.28;1.90;;;2.40;95.60;;;;;;5004773;28;20128;-77
2021/12/05 03:23:13;;;;;;;4.82;1.55;;;2.40;95.40;;;;;;5013555;28;20220;-77
2021/12/05 03:25:39;;;;;;;7.75;1.52;;;2.40;94.80;;;;;;5016323;28;20029;-77
2021/12/05 03:28:06;;;;;;;6.45;1.60;;;2.40;95.60;;;;;;5017970;28;20030;-78
2021/12/05 03:30:32;;;;;;;8.85;1.52;;;2.40;95.20;;;;;;5006387;28;20288;-77
2021/12/05 03:32:58;;;;;;;6.20;1.60;;;2.40;94.40;;;;;;5019087;28;20088;-77
2021/12/05 03:35:27;;;;;;;6.82;1.45;;;2.50;93.50;;;;;;5007650;28;20323;-78
2021/12/05 03:37:53;;;;;;;6.25;1.58;;;2.60;93.70;;;;;;5012592;28;20026;-76
2021/12/05 03:40:22;;;;;;;6.47;1.58;;;2.60;93.50;;;;;;5017977;28;20327;-76
2021/12/05 03:42:48;;;;;;;5.28;1.60;;;2.50;93.90;;;;;;5004331;28;20032;-77
2021/12/05 03:45:19;;;;;;;5.68;1.48;;;2.50;94.00;;;;;;5007287;28;20037;-76
2021/12/05 03:47:46;;;;;;;8.35;1.73;;;2.50;93.80;;;;;;5013896;28;20034;-76
2021/12/05 03:50:15;;;;;;;7.22;1.60;;;2.50;93.70;;;;;;5018965;28;20033;-77
2021/12/05 03:52:41;;;;;;;6.63;1.75;;;2.50;93.50;;;;;;5015744;28;20309;-76
2021/12/05 03:55:12;;;;;;;6.38;1.38;;;2.50;93.90;;;;;;5008065;28;20038;-77
2021/12/05 03:57:41;;;;;;;5.53;1.48;;;2.50;94.40;;;;;;5016883;28;20369;-77
2021/12/05 04:00:25;;;;;;;6.15;1.40;;;2.50;93.20;;;;;;5016464;28;20030;-77
2021/12/05 04:02:52;;;;;;;;;;;2.50;93.30;;;;;;5016157;28;20045;-77
2021/12/05 04:05:18;;;;;;;25.73;11.48;;;2.50;93.70;;;;;;5011675;28;19972;-76
2021/12/05 04:07:44;;;;;;;11.35;3.20;;;2.50;93.70;;;;;;5017053;28;20022;-76
2021/12/05 04:10:11;;;;;;;8.32;1.80;;;2.40;94.50;;;;;;5016576;28;20327;-77
2021/12/05 04:12:37;;;;;;;9.68;3.72;;;2.40;94.80;;;;;;5017332;28;20030;-77
2021/12/05 04:15:04;;;;;;;6.50;2.20;;;2.40;95.40;;;;;;5016627;28;20050;-77
2021/12/05 04:17:29;;;;;;;6.30;2.05;;;2.30;96.20;;;;;;5017828;28;20030;-76
2021/12/05 04:19:55;;;;;;;5.10;1.70;;;2.30;95.40;;;;;;5014733;28;20102;-77
2021/12/05 04:22:21;;;;;;;3.72;1.20;;;2.30;95.70;;;;;;5016942;28;20044;-76
2021/12/05 04:24:47;;;;;;;4.95;1.60;;;2.30;96.40;;;;;;5013187;28;20058;-77
2021/12/05 04:27:13;;;;;;;5.38;1.48;;;2.30;95.50;;;;;;5016794;28;20162;-76
2021/12/05 04:29:39;;;;;;;4.38;1.40;;;2.30;95.40;;;;;;5011616;28;20411;-77
2021/12/05 04:32:05;;;;;;;5.63;1.50;;;2.30;95.10;;;;;;4998550;28;20045;-76
2021/12/05 04:34:31;;;;;;;4.88;1.90;;;2.40;94.80;;;;;;5008627;28;20030;-77
2021/12/05 04:36:57;;;;;;;6.00;2.50;;;2.40;95.00;;;;;;5014211;28;20036;-77
2021/12/05 04:39:26;;;;;;;4.47;1.50;;;2.40;95.20;;;;;;5016245;28;20037;-76
2021/12/05 04:41:52;;;;;;;5.03;1.40;;;2.30;95.50;;;;;;5016957;28;20030;-77
2021/12/05 04:44:20;;;;;;;6.28;1.55;;;2.30;95.30;;;;;;5008121;28;20376;-77
2021/12/05 04:46:46;;;;;;;4.70;1.50;;;2.30;95.20;;;;;;5016803;28;20022;-77
2021/12/05 04:49:12;;;;;;;5.72;1.58;;;2.30;95.40;;;;;;5016625;28;20033;-77
2021/12/05 04:51:41;;;;;;;6.53;1.40;;;2.30;95.40;;;;;;5017855;28;20029;-77
2021/12/05 04:54:10;;;;;;;3.83;1.42;;;2.30;95.70;;;;;;5002688;28;20053;-77
2021/12/05 04:56:36;;;;;;;4.40;1.55;;;2.30;96.50;;;;;;5009466;28;20319;-77
2021/12/05 04:59:04;;;;;;;4.55;1.38;;;2.30;95.70;;;;;;5011792;28;20075;-77
2021/12/05 05:01:31;;;;;;;5.07;1.52;;;2.20;96.20;;;;;;5014044;28;20087;-77
2021/12/05 05:03:58;;;;;;;6.60;1.50;;;2.20;96.90;;;;;;5005477;28;20038;-77
2021/12/05 05:06:23;;;;;;;5.75;1.60;;;2.10;97.30;;;;;;5006158;28;20104;-76
2021/12/05 05:08:53;;;;;;;6.63;1.73;;;2.00;96.70;;;;;;5014563;28;20175;-76
2021/12/05 05:11:21;;;;;;;5.82;1.50;;;2.10;96.40;;;;;;5005102;28;20022;-76
2021/12/05 05:13:51;;;;;;;7.15;1.90;;;2.00;96.70;;;;;;5017444;28;20029;-77
2021/12/05 05:16:20;;;;;;;3.30;1.48;;;2.10;96.70;;;;;;5003626;28;20080;-77
2021/12/05 05:29:09;;;;;;;6.43;1.52;;;2.20;96.70;;;;;;5003718;28;20022;-77
2021/12/05 05:40:12;;;;;;;5.70;2.15;;;2.10;97.60;;;;;;5005710;28;20389;-77
2021/12/05 05:50:19;;;;;;;4.05;1.30;;;2.20;97.40;;;;;;5011949;28;20057;-77
2021/12/05 05:52:45;;;;;;;6.78;1.67;;;2.20;97.40;;;;;;5013345;28;20395;-77
2021/12/05 05:55:12;;;;;;;6.03;1.50;;;2.20;97.90;;;;;;5007016;28;20060;-77
2021/12/05 05:57:56;;;;;;;4.22;1.40;;;2.20;98.00;;;;;;5000738;28;20435;-77
2021/12/05 06:00:38;;;;;;;4.88;1.42;;;2.20;98.00;;;;;;5010257;28;20315;-76
2021/12/05 06:03:22;;;;;;;5.85;1.33;;;2.10;98.00;;;;;;4997067;28;20037;-76
2021/12/05 06:06:04;;;;;;;7.13;2.23;;;2.10;98.00;;;;;;5014343;28;20083;-76
2021/12/05 06:08:34;;;;;;;5.63;1.83;;;2.00;98.00;;;;;;5018874;28;20276;-76
2021/12/05 06:11:03;;;;;;;6.00;1.55;;;2.00;98.00;;;;;;5013464;28;20076;-76
2021/12/05 06:13:30;;;;;;;5.93;1.63;;;1.90;98.00;;;;;;5014668;28;20068;-77
2021/12/05 06:15:59;;;;;;;6.65;1.85;;;1.80;98.00;;;;;;4999522;28;20452;-78
2021/12/05 06:18:26;;;;;;;3.75;1.50;;;1.80;98.00;;;;;;5009442;28;20029;-77
2021/12/05 06:20:53;;;;;;;4.07;1.75;;;1.70;98.00;;;;;;5000457;28;20026;-77
2021/12/05 06:23:19;;;;;;;4.68;1.55;;;1.60;98.00;;;;;;5003841;28;20057;-77
2021/12/05 06:25:48;;;;;;;4.72;1.75;;;1.50;98.00;;;;;;5010206;28;20091;-77
2021/12/05 06:28:15;;;;;;;6.85;1.98;;;1.60;98.00;;;;;;5014861;28;20484;-77
2021/12/05 06:31:01;;;;;;;6.20;1.83;;;1.50;98.00;;;;;;5001165;28;20030;-77
2021/12/05 06:47:07;;;;;;;5.28;1.70;;;1.50;98.00;;;;;;5005894;28;20335;-77
2021/12/05 06:49:32;;;;;;;7.13;1.92;;;1.50;98.00;;;;;;5008983;28;20022;-77
2021/12/05 06:51:58;;;;;;;6.57;1.77;;;1.50;98.00;;;;;;5014215;28;20032;-77
2021/12/05 06:54:24;;;;;;;5.28;1.58;;;1.40;98.00;;;;;;5005050;28;20041;-77
2021/12/05 06:56:51;;;;;;;3.28;1.45;;;1.30;98.00;;;;;;5011793;28;20060;-77
2021/12/05 06:59:18;;;;;;;5.68;1.80;;;1.20;98.00;;;;;;5010572;28;20037;-76
2021/12/05 07:01:45;;;;;;;5.70;2.20;;;1.00;98.00;;;;;;5012229;28;20025;-77
2021/12/05 07:06:55;;;;;;;;;;;0.80;98.00;;;;;;5014252;28;20049;-76
2021/12/05 07:09:22;;;;;;;3.25;1.33;;;0.70;98.00;;;;;;5018653;28;19906;-76
2021/12/05 07:22:18;;;;;;;5.35;1.98;;;0.40;98.00;;;;;;5016888;28;20034;-76
2021/12/05 07:24:51;;;;;;;11.15;2.85;;;0.40;98.00;;;;;;5018139;28;20034;-75
2021/12/05 07:41:15;;;;;;;92.50;31.70;;;1.00;98.00;;;;;;5015669;28;20084;-76
2021/12/05 07:43:41;;;;;;;35.47;14.77;;;1.00;98.00;;;;;;5018237;28;20030;-77
2021/12/05 07:46:07;;;;;;;21.90;9.85;;;0.90;98.00;;;;;;5014261;28;20032;-77
2021/12/05 07:48:36;;;;;;;13.77;6.15;;;0.80;98.00;;;;;;5015592;28;20026;-76
2021/12/05 07:56:19;;;;;;;12.30;5.95;;;0.90;98.00;;;;;;5016967;28;20034;-77
2021/12/05 08:14:20;;;;;;;10.55;5.03;;;1.00;98.00;;;;;;5006002;28;20366;-77
2021/12/05 08:15:11;;;;;;;6.22;3.22;;;1.30;98.00;;;;;;5017781;28;20056;-76
2021/12/05 08:17:37;;;;;;;4.85;2.22;;;1.50;98.00;;;;;;5002693;28;20070;-77
2021/12/05 08:20:05;;;;;;;6.65;3.30;;;1.80;98.00;;;;;;5008572;28;20030;-76
2021/12/05 08:22:32;;;;;;;4.68;1.95;;;1.90;98.00;;;;;;5006181;28;20034;-76
2021/12/05 08:25:07;;;;;;;16.02;7.40;;;2.10;98.00;;;;;;5013028;28;20025;-76
2021/12/05 08:27:34;;;;;;;9.23;4.03;;;2.20;98.00;;;;;;5014522;28;20084;-76
2021/12/05 08:30:09;;;;;;;7.43;2.80;;;2.30;98.00;;;;;;5009580;28;20387;-76
2021/12/05 08:33:11;;;;;;;10.00;4.57;;;2.30;98.00;;;;;;5003417;28;20032;-76
2021/12/05 08:46:13;;;;;;;6.18;3.22;;;2.20;98.00;;;;;;5016923;28;20026;-76
2021/12/05 09:24:21;;;;;;;3.38;1.80;;;2.80;96.70;;;;;;5005401;28;20034;-76
2021/12/05 09:27:09;;;;;;;4.82;1.60;;;2.90;96.80;;;;;;5014427;28;20050;-77
2021/12/05 10:07:33;;;;;;;3.55;1.10;;;6.60;83.40;;;;;;5008350;28;20040;-77
2021/12/05 10:38:11;;;;;;;5.35;1.58;;;4.80;89.70;;;;;;5001670;28;20030;-76
2021/12/05 10:41:17;;;;;;;2.83;1.20;;;4.70;89.70;;;;;;5023306;28;20056;-77
2021/12/05 10:43:41;;;;;;;3.45;1.33;;;4.40;90.30;;;;;;5002959;28;20130;-77
2021/12/05 10:46:09;;;;;;;6.43;1.38;;;4.10;90.70;;;;;;5012826;28;20033;-77
2021/12/05 10:48:51;;;;;;;6.05;1.73;;;3.90;91.90;;;;;;5014607;28;20378;-76
2021/12/05 10:51:27;;;;;;;4.63;1.65;;;3.80;92.10;;;;;;5014687;28;20056;-76
2021/12/05 10:54:05;;;;;;;3.88;1.27;;;4.10;92.20;;;;;;5012291;28;20437;-76
2021/12/05 10:56:36;;;;;;;6.28;1.95;;;4.20;90.40;;;;;;5010750;28;20076;-76
2021/12/05 10:59:10;;;;;;;5.93;1.50;;;4.20;90.40;;;;;;5006114;28;20121;-77
2021/12/05 11:01:38;;;;;;;5.70;1.40;;;4.30;90.30;;;;;;5008454;28;20038;-76
2021/12/05 11:04:21;;;;;;;4.43;2.22;;;4.50;89.60;;;;;;5011025;28;20034;-77
2021/12/05 11:06:56;;;;;;;4.15;1.70;;;4.70;89.50;;;;;;5011848;28;20054;-76
2021/12/05 11:09:32;;;;;;;5.20;1.90;;;5.20;89.10;;;;;;5026606;28;20076;-76
2021/12/05 11:12:12;;;;;;;3.75;1.63;;;5.60;86.70;;;;;;4999812;28;20419;-77
2021/12/05 11:14:46;;;;;;;4.70;1.60;;;5.50;85.80;;;;;;5013158;28;20033;-77
2021/12/05 11:17:16;;;;;;;;;;;5.20;86.10;;;;;;5007536;28;20371;-76
2021/12/05 11:19:51;;;;;;;3.20;1.35;;;5.10;86.40;;;;;;5013825;28;19910;-77
2021/12/05 11:22:25;;;;;;;5.47;1.50;;;5.00;87.10;;;;;;5006861;28;20029;-77
2021/12/05 11:25:03;;;;;;;5.80;1.45;;;4.90;87.70;;;;;;5011807;28;20092;-77
2021/12/05 11:27:32;;;;;;;5.30;1.90;;;5.10;87.20;;;;;;5011056;28;20424;-77
2021/12/05 11:30:10;;;;;;;3.67;1.70;;;5.10;86.80;;;;;;5007630;28;20120;-77
2021/12/05 11:32:45;;;;;;;7.03;1.90;;;4.90;87.70;;;;;;5003160;28;20029;-77
2021/12/05 11:35:12;;;;;;;4.53;1.67;;;5.00;87.80;;;;;;5002147;28;20041;-76
2021/12/05 11:37:56;;;;;;;5.45;1.55;;;5.10;87.10;;;;;;5009006;28;20026;-77
2021/12/05 11:40:25;;;;;;;9.38;1.80;;;5.10;87.50;;;;;;5010619;28;20595;-77
2021/12/05 11:42:55;;;;;;;4.18;1.55;;;5.10;87.70;;;;;;5007743;28;20037;-77
2021/12/05 11:45:24;;;;;;;4.95;1.63;;;5.50;88.20;;;;;;5010952;28;20045;-77
2021/12/05 11:47:51;;;;;;;5.28;1.63;;;6.20;86.80;;;;;;5014420;28;20026;-78
2021/12/05 11:50:19;;;;;;;5.45;2.28;;;6.20;85.40;;;;;;5029058;28;20026;-77
2021/12/05 11:52:48;;;;;;;5.22;1.60;;;6.00;85.90;;;;;;5021675;28;20033;-76
2021/12/05 11:55:23;;;;;;;4.93;1.75;;;5.60;85.40;;;;;;5023697;28;20031;-77
2021/12/05 11:57:52;;;;;;;7.05;1.60;;;5.30;86.40;;;;;;5014212;28;20025;-76
2021/12/05 12:00:19;;;;;;;6.68;2.33;;;5.30;87.40;;;;;;5013046;28;20433;-76
2021/12/05 12:02:47;;;;;;;8.60;3.15;;;5.40;87.60;;;;;;5006666;28;20022;-78
2021/12/05 12:05:39;;;;;;;5.82;1.60;;;5.60;86.30;;;;;;5016639;28;20061;-77
2021/12/05 12:08:09;;;;;;;5.85;1.63;;;5.80;86.50;;;;;;5017208;28;20308;-77
2021/12/05 12:10:46;;;;;;;6.45;1.60;;;6.10;85.80;;;;;;5017648;28;20026;-77
2021/12/05 12:13:19;;;;;;;5.07;1.90;;;6.10;84.60;;;;;;5018715;28;20112;-77
2021/12/05 12:15:57;;;;;;;5.83;2.33;;;6.00;85.30;;;;;;5018827;28;20061;-78
2021/12/05 12:18:29;;;;;;;6.53;2.65;;;5.70;86.60;;;;;;5018316;28;20267;-77
2021/12/05 12:20:57;;;;;;;6.18;2.03;;;5.80;87.20;;;;;;5018516;28;20022;-77
2021/12/05 12:23:24;;;;;;;4.88;1.77;;;5.80;86.50;;;;;;5002985;28;20042;-77
2021/12/05 12:25:59;;;;;;;5.53;1.95;;;5.60;87.60;;;;;;4997644;28;20395;-77
2021/12/05 12:28:26;;;;;;;5.35;1.50;;;5.80;87.40;;;;;;4997743;28;20034;-77
2021/12/05 12:31:02;;;;;;;4.57;1.65;;;5.50;87.80;;;;;;4998867;28;20423;-77
2021/12/05 12:33:41;;;;;;;5.78;1.83;;;5.20;88.30;;;;;;5006283;28;20018;-77
2021/12/05 12:36:07;;;;;;;4.03;1.50;;;5.10;88.50;;;;;;5018247;28;20172;-76
2021/12/05 12:38:39;;;;;;;4.10;1.52;;;4.80;88.60;;;;;;5017074;28;20371;-77
2021/12/05 12:41:18;;;;;;;5.28;1.70;;;4.70;89.40;;;;;;5018076;28;20033;-77
2021/12/05 12:43:51;;;;;;;4.18;1.60;;;4.60;89.60;;;;;;5017025;28;20045;-77
2021/12/05 12:46:48;;;;;;;7.03;1.90;;;4.40;89.90;;;;;;5016955;28;20327;-77
2021/12/05 12:49:14;;;;;;;5.30;1.70;;;4.20;90.20;;;;;;5017849;28;20092;-77
2021/12/05 12:52:07;;;;;;;5.68;2.60;;;4.10;91.20;;;;;;5016902;28;20033;-77
2021/12/05 12:54:56;;;;;;;5.43;2.13;;;4.10;91.80;;;;;;5013557;28;20091;-77
2021/12/05 12:57:24;;;;;;;6.05;2.33;;;4.00;92.30;;;;;;4996656;28;20061;-77
2021/12/05 13:00:15;;;;;;;6.85;2.15;;;3.90;92.80;;;;;;4998499;28;20042;-77
2021/12/05 13:11:04;;;;;;;9.77;3.40;;;3.70;94.40;;;;;;5018042;28;20328;-77
2021/12/05 13:13:32;;;;;;;10.20;2.53;;;3.70;94.60;;;;;;5017150;28;20311;-77
2021/12/05 13:16:26;;;;;;;7.28;2.33;;;3.80;94.70;;;;;;5017129;28;20080;-77
2021/12/05 13:19:18;;;;;;;7.20;2.83;;;3.90;94.40;;;;;;5017462;28;20030;-77
2021/12/05 13:21:46;;;;;;;6.03;2.88;;;4.00;94.40;;;;;;5011692;28;20057;-77
2021/12/05 13:24:32;;;;;;;8.60;3.70;;;4.00;94.20;;;;;;5010590;28;20026;-77
2021/12/05 13:27:03;;;;;;;7.07;2.85;;;4.10;94.40;;;;;;5006335;28;20058;-77
2021/12/05 13:29:52;;;;;;;7.90;3.35;;;4.10;92.90;;;;;;5013626;28;20068;-77
2021/12/05 13:32:25;;;;;;;7.90;3.20;;;4.00;92.40;;;;;;5016838;28;20029;-77
2021/12/05 13:35:00;;;;;;;7.70;2.58;;;3.90;92.70;;;;;;5007384;28;20030;-77
2021/12/05 13:37:42;;;;;;;6.07;2.45;;;3.80;93.10;;;;;;5005140;28;20033;-77
2021/12/05 13:40:08;;;;;;;6.90;3.03;;;3.80;93.50;;;;;;5017027;28;20104;-76
2021/12/05 13:42:43;;;;;;;4.38;2.05;;;3.80;93.70;;;;;;5015463;28;20113;-78
2021/12/05 13:45:25;;;;;;;4.78;2.10;;;3.80;93.10;;;;;;5016108;28;20388;-77
2021/12/05 13:47:51;;;;;;;7.10;2.72;;;3.80;93.00;;;;;;5016550;28;20094;-77
2021/12/05 13:50:22;;;;;;;9.32;5.15;;;3.80;92.90;;;;;;5015963;28;20022;-77
2021/12/05 13:53:14;;;;;;;6.13;3.00;;;3.80;93.60;;;;;;5013311;28;20402;-77
2021/12/05 13:56:02;;;;;;;6.95;3.25;;;3.70;93.80;;;;;;5015757;28;20026;-78
2021/12/05 13:58:53;;;;;;;4.05;2.08;;;3.60;93.90;;;;;;5015331;28;20026;-78
2021/12/05 14:01:35;;;;;;;6.75;2.80;;;3.60;93.90;;;;;;5016167;28;20026;-77
2021/12/05 14:04:05;;;;;;;;;;;3.60;93.90;;;;;;5017228;28;20026;-77
2021/12/05 14:06:47;;;;;;;9.95;3.97;;;3.60;94.10;;;;;;5016595;28;19960;-77
2021/12/05 14:09:18;;;;;;;13.80;6.22;;;3.60;94.40;;;;;;5009105;28;20375;-77
2021/12/05 14:11:55;;;;;;;10.30;5.97;;;3.50;94.30;;;;;;5012179;28;20030;-77
2021/12/05 14:14:27;;;;;;;14.07;6.32;;;3.50;94.90;;;;;;4997116;28;20022;-77
2021/12/05 14:16:55;;;;;;;7.72;3.83;;;3.50;95.20;;;;;;5009791;28;20349;-77
2021/12/05 14:19:24;;;;;;;7.20;3.03;;;3.50;95.70;;;;;;5025751;28;20034;-77
2021/12/05 14:21:52;;;;;;;8.27;3.13;;;3.40;95.70;;;;;;5015831;28;20057;-78
2021/12/05 14:24:20;;;;;;;8.50;3.70;;;3.30;95.80;;;;;;4999074;28;20023;-77
2021/12/05 14:26:52;;;;;;;9.55;4.45;;;3.10;96.50;;;;;;4996181;28;20336;-77
2021/12/05 14:29:22;;;;;;;10.70;4.15;;;3.10;97.10;;;;;;5011067;28;20486;-77
2021/12/05 14:32:11;;;;;;;5.78;2.85;;;3.10;97.60;;;;;;4998324;28;20082;-77
2021/12/05 14:34:38;;;;;;;6.20;3.00;;;3.00;98.00;;;;;;4999585;28;20068;-77
2021/12/05 14:37:13;;;;;;;5.68;1.98;;;3.00;98.00;;;;;;5008745;28;20045;-77
2021/12/05 14:39:43;;;;;;;6.63;2.78;;;2.90;98.00;;;;;;5002544;28;20378;-77
2021/12/05 14:42:16;;;;;;;25.30;5.22;;;2.90;97.60;;;;;;4997114;28;20031;-77
2021/12/05 14:44:44;;;;;;;9.18;4.10;;;2.80;98.00;;;;;;5006039;28;20025;-77
2021/12/05 14:47:12;;;;;;;6.47;2.55;;;2.80;98.00;;;;;;5000371;28;20034;-77
2021/12/05 14:49:42;;;;;;;4.88;2.28;;;2.80;98.00;;;;;;4996050;28;20034;-77
2021/12/05 14:52:12;;;;;;;4.53;1.90;;;2.70;98.00;;;;;;5005088;28;20026;-76
2021/12/05 14:54:40;;;;;;;8.95;4.65;;;2.70;98.00;;;;;;4999536;28;20439;-77
2021/12/05 14:57:28;;;;;;;7.95;2.80;;;2.60;98.00;;;;;;5001066;28;20092;-78
2021/12/05 15:00:12;;;;;;;12.45;6.15;;;2.60;98.00;;;;;;5001742;28;20029;-77
2021/12/05 15:02:39;;;;;;;11.15;4.75;;;2.70;98.00;;;;;;5001057;28;20069;-78
2021/12/05 15:05:08;;;;;;;9.23;3.47;;;2.80;98.00;;;;;;4999801;28;20030;-78
2021/12/05 15:07:34;;;;;;;7.35;3.90;;;2.90;98.00;;;;;;4998306;28;20093;-77
2021/12/05 15:10:00;;;;;;;13.02;6.25;;;2.80;98.00;;;;;;5001543;28;20022;-77
2021/12/05 15:12:29;;;;;;;7.75;3.67;;;2.80;98.00;;;;;;4999123;28;20097;-77
2021/12/05 15:15:01;;;;;;;19.95;9.07;;;2.60;98.00;;;;;;5000040;28;20038;-76
2021/12/05 15:17:35;;;;;;;7.63;4.40;;;2.40;98.00;;;;;;5002427;28;20050;-76
2021/12/05 15:20:06;;;;;;;6.68;3.17;;;2.30;98.00;;;;;;5006004;28;20026;-77
2021/12/05 15:22:31;;;;;;;9.20;5.32;;;2.10;98.00;;;;;;5006262;28;20030;-77
2021/12/05 15:25:00;;;;;;;8.30;4.55;;;2.00;98.00;;;;;;5004978;28;20029;-77
2021/12/05 15:27:28;;;;;;;9.20;4.72;;;1.80;98.00;;;;;;5010767;28;20069;-77
2021/12/05 15:29:56;;;;;;;15.80;10.48;;;1.60;98.00;;;;;;5015773;28;20308;-77
2021/12/05 15:32:25;;;;;;;36.92;20.13;;;1.50;98.00;;;;;;5016653;28;20040;-77
2021/12/05 15:34:54;;;;;;;40.95;25.50;;;1.40;98.00;;;;;;5018625;28;20022;-76
2021/12/05 15:37:20;;;;;;;17.73;11.30;;;1.30;98.00;;;;;;5010122;28;20038;-76
2021/12/05 15:39:48;;;;;;;17.45;10.35;;;1.20;98.00;;;;;;5014931;28;20034;-76
2021/12/05 15:42:36;;;;;;;22.45;14.27;;;1.20;97.70;;;;;;5011730;28;20315;-76
2021/12/05 15:45:06;;;;;;;45.15;27.67;;;1.10;97.80;;;;;;5017275;28;20018;-76
2021/12/05 15:47:35;;;;;;;12.63;8.02;;;1.10;97.60;;;;;;5014017;28;20022;-76
2021/12/05 15:50:20;;;;;;;11.65;4.60;;;1.10;97.20;;;;;;5012936;28;20088;-77
2021/12/05 15:52:51;;;;;;;18.42;5.95;;;1.10;97.40;;;;;;4998219;28;20034;-78
2021/12/05 15:55:23;;;;;;;57.58;32.13;;;1.10;97.40;;;;;;5015921;28;20411;-77
2021/12/05 15:57:55;;;;;;;43.38;25.23;;;1.10;97.60;;;;;;5009951;28;20034;-76
2021/12/05 16:00:31;;;;;;;22.30;11.50;;;1.00;97.50;;;;;;5011373;28;20034;-77
2021/12/05 16:03:01;;;;;;;13.70;7.65;;;1.00;97.20;;;;;;5017219;28;20109;-77
2021/12/05 16:05:27;;;;;;;29.35;13.40;;;0.90;97.40;;;;;;5015331;28;20080;-77
2021/12/05 16:08:03;;;;;;;28.50;14.93;;;0.80;97.20;;;;;;5015972;28;20029;-77
2021/12/05 16:10:30;;;;;;;33.70;20.45;;;0.80;97.20;;;;;;5018007;28;20022;-77
2021/12/05 16:12:56;;;;;;;17.27;11.63;;;0.70;97.30;;;;;;5013200;28;20021;-76
2021/12/05 16:15:26;;;;;;;26.35;16.17;;;0.60;97.70;;;;;;5016365;28;20088;-76
2021/12/05 16:17:59;;;;;;;27.75;21.20;;;0.40;97.20;;;;;;5016002;28;20092;-76
2021/12/05 16:20:40;;;;;;;23.83;18.25;;;0.30;97.10;;;;;;5014219;28;20101;-77
2021/12/05 16:23:25;;;;;;;17.55;12.13;;;0.30;96.90;;;;;;5011318;28;20034;-76
2021/12/05 16:26:09;;;;;;;16.58;9.23;;;0.10;96.90;;;;;;5016733;28;20080;-77
2021/12/05 16:28:36;;;;;;;;;;;0.00;96.50;;;;;;5016338;28;20022;-77
2021/12/05 16:31:14;;;;;;;11.48;8.35;;;0.00;96.60;;;;;;5015974;28;19920;-76
2021/12/05 16:33:43;;;;;;;15.88;10.98;;;-0.10;96.10;;;;;;5015402;28;20053;-77
2021/12/05 16:36:10;;;;;;;17.92;14.00;;;-0.10;95.80;;;;;;5009515;28;20034;-76
2021/12/05 16:38:37;;;;;;;18.65;8.32;;;-0.10;95.60;;;;;;5015963;28;20022;-77
2021/12/05 16:41:29;;;;;;;12.35;6.05;;;-0.10;95.50;;;;;;5015778;28;20112;-78
2021/12/05 16:44:10;;;;;;;14.90;7.03;;;-0.20;95.60;;;;;;5031776;28;20041;-78
2021/12/05 16:46:43;;;;;;;12.07;5.85;;;-0.30;95.70;;;;;;5008203;28;20026;-77
2021/12/05 16:49:13;;;;;;;14.35;7.03;;;-0.30;95.40;;;;;;5012766;28;20026;-77
2021/12/05 16:52:03;;;;;;;10.60;4.82;;;-0.40;95.40;;;;;;5011412;28;20108;-77
2021/12/05 16:54:35;;;;;;;20.30;10.27;;;-0.40;95.70;;;;;;5016203;28;20080;-77
2021/12/05 16:57:09;;;;;;;25.00;14.07;;;-0.60;95.80;;;;;;5017178;28;20037;-77
2021/12/05 16:59:42;;;;;;;17.85;6.88;;;-0.70;95.60;;;;;;5012691;28;20068;-77
2021/12/05 17:02:19;;;;;;;16.92;9.00;;;-0.80;95.40;;;;;;5016914;28;20045;-77
2021/12/05 17:05:07;;;;;;;19.88;9.65;;;-0.70;94.60;;;;;;5015490;28;20022;-77
2021/12/05 17:07:43;;;;;;;22.88;10.57;;;-0.80;95.00;;;;;;5013848;28;20411;-78
2021/12/05 17:10:38;;;;;;;10.98;7.30;;;-0.80;94.40;;;;;;5010991;28;20443;-77
2021/12/05 17:13:13;;;;;;;14.73;8.88;;;-0.80;93.50;;;;;;5012673;28;20037;-77
2021/12/05 17:15:55;;;;;;;15.10;7.85;;;-0.70;94.10;;;;;;5015897;28;20034;-76
2021/12/05 17:18:27;;;;;;;25.95;15.25;;;-0.70;93.90;;;;;;5015156;28;20112;-77
2021/12/05 17:21:00;;;;;;;18.55;11.60;;;-0.70;93.80;;;;;;5009962;28;20041;-77
2021/12/05 17:23:33;;;;;;;18.05;13.13;;;-0.70;93.40;;;;;;5015810;28;20026;-78
2021/12/05 17:26:15;;;;;;;20.90;14.37;;;-0.70;93.80;;;;;;5014279;28;20053;-78
2021/12/05 17:28:50;;;;;;;55.10;28.52;;;-0.60;93.50;;;;;;5016852;28;20038;-77
2021/12/05 17:31:22;;;;;;;497.15;227.57;;;-0.70;94.00;;;;;;5007947;28;20022;-78
2021/12/05 17:33:52;;;;;;;256.25;110.07;;;-0.70;94.10;;;;;;5015623;28;20504;-78
2021/12/05 17:36:31;;;;;;;96.03;44.83;;;-0.70;93.60;;;;;;5010996;28;20435;-78
2021/12/05 17:39:03;;;;;;;34.90;22.67;;;-0.70;93.20;;;;;;5004664;28;20030;-77
2021/12/05 17:41:30;;;;;;;28.60;18.98;;;-0.60;93.50;;;;;;5016325;28;20037;-76
2021/12/05 17:43:56;;;;;;;32.10;18.15;;;-0.60;93.90;;;;;;5024291;28;20023;-76
2021/12/05 17:46:23;;;;;;;13.88;7.80;;;-0.70;93.90;;;;;;5016283;28;20338;-76
2021/12/05 17:48:48;;;;;;;15.43;8.43;;;-0.60;93.10;;;;;;5014394;28;20026;-76
2021/12/05 17:51:15;;;;;;;25.25;14.63;;;-0.60;93.60;;;;;;5016508;28;20029;-76
2021/12/05 17:53:41;;;;;;;30.75;16.83;;;-0.60;93.80;;;;;;5010221;28;20033;-77
2021/12/05 17:56:16;;;;;;;23.15;14.10;;;-0.60;93.90;;;;;;5014994;28;20050;-77
2021/12/05 18:03:56;;;;;;;31.30;16.77;;;-0.40;93.90;;;;;;5012236;28;20079;-77
2021/12/05 18:06:23;;;;;;;34.15;17.27;;;-0.40;93.90;;;;;;5013960;28;20427;-77
2021/12/05 18:08:49;;;;;;;31.15;14.57;;;-0.30;94.10;;;;;;5012014;28;20064;-77
2021/12/05 18:11:22;;;;;;;28.50;13.93;;;-0.30;94.30;;;;;;5016166;28;20025;-77
2021/12/05 18:13:52;;;;;;;16.85;8.40;;;-0.30;94.20;;;;;;5014980;28;20029;-76
2021/12/05 18:16:23;;;;;;;16.00;8.68;;;-0.20;94.00;;;;;;5015508;28;20368;-77
2021/12/05 18:18:52;;;;;;;31.30;17.00;;;-0.10;94.50;;;;;;5010035;28;20030;-76
2021/12/05 18:21:18;;;;;;;23.23;13.27;;;0.00;95.00;;;;;;5009745;28;20029;-77
2021/12/05 18:23:45;;;;;;;29.48;15.13;;;0.00;95.00;;;;;;5008582;28;20041;-76
2021/12/05 18:26:11;;;;;;;14.50;9.13;;;0.10;95.40;;;;;;5014427;28;20121;-76
2021/12/05 18:28:38;;;;;;;31.95;17.88;;;0.10;95.30;;;;;;5007488;28;20029;-78
2021/12/05 18:31:06;;;;;;;18.90;10.38;;;0.20;95.80;;;;;;5015251;28;20080;-77
2021/12/05 18:33:33;;;;;;;22.15;12.38;;;0.30;95.70;;;;;;5004600;28;20057;-76
2021/12/05 18:35:59;;;;;;;37.03;19.05;;;0.30;96.30;;;;;;5020355;28;20340;-77
2021/12/05 18:38:25;;;;;;;26.60;14.95;;;0.30;96.40;;;;;;5013300;28;20441;-77
2021/12/05 18:40:56;;;;;;;37.47;22.52;;;0.30;96.30;;;;;;5011782;28;20030;-78
2021/12/05 18:43:26;;;;;;;25.73;16.70;;;0.30;96.90;;;;;;5012436;28;20030;-77
2021/12/05 18:45:53;;;;;;;11.63;8.07;;;0.30;96.90;;;;;;5016285;28;20030;-77
2021/12/05 18:48:19;;;;;;;14.00;8.30;;;0.40;96.70;;;;;;5015461;28;20076;-77
2021/12/05 18:50:45;;;;;;;10.88;5.78;;;0.50;97.30;;;;;;5015828;28;20084;-76
2021/12/05 18:53:12;;;;;;;25.17;14.25;;;0.50;97.40;;;;;;5013247;28;20434;-78
2021/12/05 18:55:39;;;;;;;44.75;26.60;;;0.50;98.00;;;;;;5019317;28;20053;-77
2021/12/05 18:58:08;;;;;;;16.30;9.70;;;0.60;98.00;;;;;;5011613;28;20030;-77
2021/12/05 19:04:21;;;;;;;25.17;15.30;;;0.50;98.00;;;;;;5015366;28;20118;-77
2021/12/05 19:06:23;;;;;;;17.58;10.30;;;0.50;98.00;;;;;;5012697;28;20033;-77
2021/12/05 19:11:47;;;;;;;14.68;10.05;;;0.50;98.00;;;;;;5016994;28;20128;-77
2021/12/05 19:14:25;;;;;;;17.05;10.55;;;0.40;98.00;;;;;;5008929;28;20042;-77
2021/12/05 19:16:55;;;;;;;14.15;9.25;;;0.40;98.00;;;;;;5016815;28;20033;-77